createdAt,value
2017-10-06T00:02:18.991Z,10.80
2017-10-06T00:04:46.905Z,10.60
2017-10-06T00:07:13.169Z,10.60
2017-10-06T00:09:39.434Z,10.60
2017-10-06T00:12:05.682Z,10.60
2017-10-06T00:14:31.925Z,10.60
2017-10-06T00:16:58.175Z,10.50
2017-10-06T00:19:24.390Z,10.50
2017-10-06T00:21:50.659Z,10.80
2017-10-06T00:24:16.866Z,11.00
2017-10-06T00:26:43.115Z,10.50
2017-10-06T00:29:10.162Z,10.70
2017-10-06T00:31:36.344Z,10.70
2017-10-06T00:34:02.736Z,10.80
2017-10-06T00:36:28.935Z,10.60
2017-10-06T00:38:55.171Z,10.70
2017-10-06T00:41:22.233Z,10.70
2017-10-06T00:43:48.547Z,10.70
2017-10-06T00:46:14.753Z,10.70
2017-10-06T00:48:41.108Z,10.40
2017-10-06T00:51:07.296Z,10.70
2017-10-06T00:53:33.551Z,10.70
2017-10-06T00:55:59.832Z,10.70
2017-10-06T00:58:25.996Z,10.60
2017-10-06T01:00:52.950Z,10.50
2017-10-06T01:03:19.118Z,11.00
2017-10-06T01:05:45.285Z,10.50
2017-10-06T01:08:11.490Z,10.50
2017-10-06T01:10:39.607Z,11.00
2017-10-06T01:13:07.511Z,10.50
2017-10-06T01:15:33.707Z,10.60
2017-10-06T01:17:59.902Z,10.70
2017-10-06T01:20:27.545Z,10.70
2017-10-06T01:22:56.120Z,10.60
2017-10-06T01:25:22.493Z,10.60
2017-10-06T01:27:48.722Z,10.50
2017-10-06T01:30:17.597Z,10.50
2017-10-06T01:32:51.370Z,10.50
2017-10-06T01:35:18.144Z,10.50
2017-10-06T01:37:45.361Z,10.20
2017-10-06T01:40:12.939Z,10.30
2017-10-06T01:42:41.990Z,10.50
2017-10-06T01:45:08.333Z,10.50
2017-10-06T01:47:35.740Z,10.60
2017-10-06T01:50:05.258Z,10.70
2017-10-06T01:52:31.555Z,10.50
2017-10-06T01:54:57.875Z,10.60
2017-10-06T01:57:24.406Z,10.40
2017-10-06T01:59:50.663Z,10.50
2017-10-06T02:02:16.834Z,10.60
2017-10-06T02:04:43.871Z,10.70
2017-10-06T02:07:10.020Z,10.60
2017-10-06T02:09:36.168Z,10.70
2017-10-06T02:12:02.362Z,10.80
2017-10-06T02:14:29.279Z,10.70
2017-10-06T02:16:55.423Z,10.50
2017-10-06T02:19:21.587Z,10.50
2017-10-06T02:21:48.287Z,10.90
2017-10-06T02:24:14.485Z,10.70
2017-10-06T02:26:41.010Z,10.80
2017-10-06T02:29:07.977Z,10.70
2017-10-06T02:31:34.896Z,10.60
2017-10-06T02:34:01.192Z,10.90
2017-10-06T02:36:28.099Z,10.70
2017-10-06T02:38:54.253Z,10.70
2017-10-06T02:41:20.396Z,10.90
2017-10-06T02:43:46.564Z,10.70
2017-10-06T02:46:12.729Z,10.70
2017-10-06T02:48:38.980Z,10.80
2017-10-06T02:51:05.535Z,10.70
2017-10-06T02:53:31.678Z,10.70
2017-10-06T02:55:57.829Z,10.70
2017-10-06T02:58:24.001Z,10.70
2017-10-06T03:00:50.179Z,10.60
2017-10-06T03:03:16.293Z,10.70
2017-10-06T03:05:42.438Z,10.80
2017-10-06T03:08:08.639Z,10.90
2017-10-06T03:10:35.837Z,10.70
2017-10-06T03:13:01.990Z,10.90
2017-10-06T03:15:28.377Z,10.70
2017-10-06T03:17:54.553Z,10.70
2017-10-06T03:20:20.732Z,10.60
2017-10-06T03:22:46.900Z,10.70
2017-10-06T03:25:13.059Z,10.70
2017-10-06T03:27:39.261Z,10.70
2017-10-06T03:30:06.142Z,10.70
2017-10-06T03:32:32.318Z,10.70
2017-10-06T03:34:58.481Z,11.10
2017-10-06T03:37:24.665Z,10.70
2017-10-06T03:39:51.573Z,10.60
2017-10-06T03:42:17.746Z,10.30
2017-10-06T03:44:43.935Z,10.60
2017-10-06T03:47:10.875Z,10.60
2017-10-06T03:49:37.026Z,10.50
2017-10-06T03:52:03.285Z,10.50
2017-10-06T03:54:29.472Z,10.50
2017-10-06T03:56:56.404Z,10.70
2017-10-06T03:59:23.346Z,10.70
2017-10-06T04:01:49.510Z,10.90
2017-10-06T04:04:15.674Z,10.70
2017-10-06T04:06:41.858Z,10.60
2017-10-06T04:09:09.132Z,10.70
2017-10-06T04:11:35.369Z,10.70
2017-10-06T04:14:01.525Z,10.70
2017-10-06T04:16:27.706Z,10.90
2017-10-06T04:18:53.994Z,10.60
2017-10-06T04:21:20.205Z,10.60
2017-10-06T04:23:46.361Z,10.60
2017-10-06T04:26:12.739Z,10.60
2017-10-06T04:28:39.324Z,10.60
2017-10-06T04:31:05.628Z,10.70
2017-10-06T04:33:35.000Z,10.60
2017-10-06T04:36:03.193Z,10.70
2017-10-06T04:38:30.304Z,10.60
2017-10-06T04:40:58.464Z,10.70
2017-10-06T04:43:25.864Z,10.60
2017-10-06T04:45:52.057Z,10.60
2017-10-06T04:48:19.020Z,10.50
2017-10-06T04:50:46.611Z,10.80
2017-10-06T04:53:14.011Z,10.50
2017-10-06T04:55:41.297Z,10.50
2017-10-06T04:58:08.308Z,10.60
2017-10-06T05:00:36.188Z,10.40
2017-10-06T05:03:03.481Z,10.60
2017-10-06T05:05:29.947Z,10.60
2017-10-06T05:07:56.446Z,10.40
2017-10-06T05:10:24.717Z,10.20
2017-10-06T05:13:10.962Z,10.10
2017-10-06T05:15:39.116Z,10.40
2017-10-06T05:18:05.420Z,10.40
2017-10-06T05:20:31.670Z,10.40
2017-10-06T05:22:57.967Z,10.70
2017-10-06T05:25:24.736Z,10.40
2017-10-06T05:27:50.952Z,10.40
2017-10-06T05:30:17.134Z,10.70
2017-10-06T05:32:43.717Z,10.30
2017-10-06T05:35:10.597Z,10.30
2017-10-06T05:37:36.766Z,10.30
2017-10-06T05:40:03.602Z,10.30
2017-10-06T05:42:32.360Z,10.10
2017-10-06T05:44:58.839Z,10.20
2017-10-06T05:47:26.108Z,10.10
2017-10-06T05:49:53.258Z,10.20
2017-10-06T05:52:19.610Z,10.10
2017-10-06T05:54:46.290Z,10.40
2017-10-06T05:57:13.358Z,10.20
2017-10-06T05:59:40.458Z,10.30
2017-10-06T06:02:07.164Z,10.40
2017-10-06T06:04:50.686Z,10.40
2017-10-06T06:07:17.054Z,10.40
2017-10-06T06:09:43.399Z,10.40
2017-10-06T06:12:09.642Z,10.50
2017-10-06T06:14:45.507Z,10.40
2017-10-06T06:17:15.168Z,10.30
2017-10-06T06:19:41.510Z,10.40
2017-10-06T06:22:07.897Z,10.40
2017-10-06T06:24:34.242Z,10.30
2017-10-06T06:27:00.682Z,10.30
2017-10-06T06:29:27.030Z,10.40
2017-10-06T06:31:53.601Z,10.40
2017-10-06T06:34:20.670Z,10.60
2017-10-06T06:36:47.060Z,10.60
2017-10-06T06:39:13.410Z,10.60
2017-10-06T06:41:39.774Z,10.50
2017-10-06T06:44:06.254Z,10.60
2017-10-06T06:46:32.601Z,10.70
2017-10-06T06:48:59.022Z,10.70
2017-10-06T06:51:26.093Z,10.80
2017-10-06T06:53:53.205Z,11.00
2017-10-06T06:56:19.575Z,11.10
2017-10-06T06:58:45.923Z,11.10
2017-10-06T07:01:12.271Z,10.90
2017-10-06T07:03:38.642Z,11.10
2017-10-06T07:06:05.682Z,11.00
2017-10-06T07:08:32.044Z,11.20
2017-10-06T07:10:58.405Z,10.80
2017-10-06T07:13:24.798Z,11.10
2017-10-06T07:15:51.214Z,11.10
2017-10-06T07:18:17.624Z,11.10
2017-10-06T07:20:44.726Z,11.10
2017-10-06T07:23:11.127Z,11.10
2017-10-06T07:25:38.246Z,11.10
2017-10-06T07:28:04.701Z,11.20
2017-10-06T07:30:31.073Z,11.10
2017-10-06T07:32:58.169Z,11.20
2017-10-06T07:35:24.546Z,11.50
2017-10-06T07:37:50.944Z,11.10
2017-10-06T07:40:17.302Z,11.30
2017-10-06T07:42:43.658Z,11.50
2017-10-06T07:45:10.764Z,11.30
2017-10-06T07:47:37.134Z,11.50
2017-10-06T07:50:03.507Z,11.50
2017-10-06T07:52:29.897Z,11.20
2017-10-06T07:55:04.559Z,11.60
2017-10-06T07:57:31.000Z,11.60
2017-10-06T07:59:57.366Z,11.70
2017-10-06T08:02:23.770Z,11.60
2017-10-06T08:04:50.155Z,11.60
2017-10-06T08:07:16.487Z,11.70
2017-10-06T08:09:43.146Z,12.00
2017-10-06T08:12:11.210Z,11.70
2017-10-06T08:14:37.600Z,11.90
2017-10-06T08:17:03.973Z,12.00
2017-10-06T08:19:31.090Z,12.00
2017-10-06T08:21:57.458Z,12.10
2017-10-06T08:24:24.578Z,12.00
2017-10-06T08:26:50.966Z,12.00
2017-10-06T08:29:20.206Z,12.20
2017-10-06T08:31:46.586Z,12.20
2017-10-06T08:34:12.923Z,12.10
2017-10-06T08:36:40.024Z,12.10
2017-10-06T08:39:06.378Z,12.10
2017-10-06T08:41:32.914Z,12.10
2017-10-06T08:43:59.295Z,12.00
2017-10-06T08:46:25.665Z,12.00
2017-10-06T08:48:59.155Z,11.90
2017-10-06T08:51:25.520Z,11.90
2017-10-06T08:53:51.901Z,12.30
2017-10-06T08:56:18.434Z,12.10
2017-10-06T08:58:45.547Z,12.10
2017-10-06T09:01:11.924Z,12.10
2017-10-06T09:03:39.038Z,12.30
2017-10-06T09:06:10.710Z,12.30
2017-10-06T09:08:37.049Z,12.30
2017-10-06T09:11:03.405Z,12.30
2017-10-06T09:13:29.770Z,12.30
2017-10-06T09:15:56.137Z,12.30
2017-10-06T09:18:22.498Z,12.30
2017-10-06T09:20:48.867Z,12.60
2017-10-06T09:23:19.572Z,12.40
2017-10-06T09:25:45.958Z,12.30
2017-10-06T09:28:12.307Z,12.00
2017-10-06T09:30:38.657Z,12.50
2017-10-06T09:33:05.005Z,12.30
2017-10-06T09:35:31.350Z,12.20
2017-10-06T09:37:57.718Z,12.00
2017-10-06T09:40:28.608Z,12.00
2017-10-06T09:42:54.966Z,12.10
2017-10-06T09:45:21.327Z,12.10
2017-10-06T09:47:47.691Z,12.10
2017-10-06T09:50:14.065Z,12.00
2017-10-06T09:52:40.403Z,11.90
2017-10-06T09:55:07.510Z,11.90
2017-10-06T09:57:33.870Z,11.90
2017-10-06T10:00:03.305Z,12.00
2017-10-06T10:02:30.400Z,11.90
2017-10-06T10:04:57.002Z,11.90
2017-10-06T10:07:23.369Z,11.60
2017-10-06T10:09:49.726Z,12.00
2017-10-06T10:12:16.110Z,11.80
2017-10-06T10:14:43.253Z,11.90
2017-10-06T10:17:13.344Z,12.40
2017-10-06T10:19:39.705Z,11.90
2017-10-06T10:22:06.050Z,11.70
2017-10-06T10:24:32.381Z,12.00
2017-10-06T10:26:59.478Z,12.10
2017-10-06T10:29:25.834Z,12.30
2017-10-06T10:31:52.232Z,12.10
2017-10-06T10:34:23.306Z,12.10
2017-10-06T10:36:49.670Z,12.00
2017-10-06T10:39:16.018Z,11.90
2017-10-06T10:41:43.102Z,12.10
2017-10-06T10:44:09.441Z,12.00
2017-10-06T10:46:35.799Z,12.20
2017-10-06T10:49:02.158Z,12.30
2017-10-06T10:51:30.634Z,12.20
2017-10-06T10:53:57.012Z,12.10
2017-10-06T10:56:23.379Z,12.00
2017-10-06T10:58:49.762Z,12.00
2017-10-06T11:01:16.135Z,11.70
2017-10-06T11:03:42.523Z,12.00
2017-10-06T11:06:08.900Z,11.90
2017-10-06T11:08:35.308Z,11.90
2017-10-06T11:11:05.505Z,11.90
2017-10-06T11:13:31.874Z,11.90
2017-10-06T11:15:59.071Z,12.00
2017-10-06T11:18:26.206Z,12.00
2017-10-06T11:20:52.606Z,12.00
2017-10-06T11:23:18.972Z,12.40
2017-10-06T11:25:46.082Z,12.40
2017-10-06T11:28:15.714Z,12.30
2017-10-06T11:30:42.826Z,12.50
2017-10-06T11:33:09.190Z,12.40
2017-10-06T11:35:35.598Z,13.00
2017-10-06T11:38:01.968Z,12.40
2017-10-06T11:40:28.362Z,12.60
2017-10-06T11:42:55.487Z,12.70
2017-10-06T11:45:21.882Z,12.70
2017-10-06T11:47:53.602Z,13.10
2017-10-06T11:50:20.741Z,13.10
2017-10-06T11:52:47.114Z,13.20
2017-10-06T11:55:13.481Z,13.20
2017-10-06T11:57:39.867Z,13.30
2017-10-06T12:00:06.282Z,13.30
2017-10-06T12:02:38.059Z,13.30
2017-10-06T12:05:04.419Z,13.30
2017-10-06T12:07:30.905Z,13.00
2017-10-06T12:09:58.021Z,13.20
2017-10-06T12:12:24.399Z,13.20
2017-10-06T12:14:50.768Z,13.30
2017-10-06T12:17:17.142Z,13.50
2017-10-06T12:19:50.186Z,13.60
2017-10-06T12:22:16.354Z,13.70
2017-10-06T12:24:42.541Z,13.90
2017-10-06T12:27:09.563Z,14.00
2017-10-06T12:29:35.730Z,14.10
2017-10-06T12:32:02.046Z,14.10
2017-10-06T12:34:28.965Z,14.10
2017-10-06T12:36:55.613Z,14.10
2017-10-06T12:39:22.278Z,14.20
2017-10-06T12:41:48.451Z,14.30
2017-10-06T12:44:14.649Z,14.40
2017-10-06T12:46:41.712Z,14.40
2017-10-06T12:49:07.952Z,14.20
2017-10-06T12:51:34.899Z,14.20
2017-10-06T12:54:02.169Z,14.00
2017-10-06T12:56:29.221Z,13.70
2017-10-06T12:58:56.183Z,13.50
2017-10-06T13:01:22.383Z,13.70
2017-10-06T13:03:50.004Z,13.40
2017-10-06T13:06:16.302Z,13.30
2017-10-06T13:08:42.567Z,13.20
2017-10-06T13:11:09.511Z,13.20
2017-10-06T13:13:35.734Z,13.20
2017-10-06T13:16:01.915Z,13.30
2017-10-06T13:18:28.372Z,13.60
2017-10-06T13:20:54.638Z,13.60
2017-10-06T13:23:21.558Z,13.90
2017-10-06T13:25:47.808Z,13.90
2017-10-06T13:28:13.995Z,13.90
2017-10-06T13:30:40.367Z,14.10
2017-10-06T13:33:06.600Z,13.70
2017-10-06T13:35:32.851Z,13.80
2017-10-06T13:37:59.052Z,13.90
2017-10-06T13:40:25.248Z,14.00
2017-10-06T13:42:51.528Z,14.60
2017-10-06T13:45:18.483Z,14.20
2017-10-06T13:47:45.497Z,14.20
2017-10-06T13:50:11.779Z,14.20
2017-10-06T13:52:37.983Z,14.20
2017-10-06T13:55:04.144Z,14.30
2017-10-06T13:57:30.324Z,14.50
2017-10-06T13:59:56.493Z,14.50
2017-10-06T14:02:22.635Z,14.40
2017-10-06T14:04:49.046Z,14.20
2017-10-06T14:07:16.124Z,14.30
2017-10-06T14:09:42.582Z,14.60
2017-10-06T14:12:08.866Z,14.50
2017-10-06T14:14:35.119Z,14.60
2017-10-06T14:17:01.499Z,14.40
2017-10-06T14:19:27.862Z,14.40
2017-10-06T14:21:54.206Z,14.30
2017-10-06T14:24:20.658Z,14.40
2017-10-06T14:26:47.044Z,14.40
2017-10-06T14:29:14.142Z,14.50
2017-10-06T14:31:40.511Z,14.30
2017-10-06T14:34:07.663Z,14.60
2017-10-06T14:36:34.853Z,14.40
2017-10-06T14:39:01.790Z,14.50
2017-10-06T14:41:27.946Z,14.50
2017-10-06T14:43:54.843Z,14.50
2017-10-06T14:46:21.014Z,14.50
2017-10-06T14:48:48.152Z,14.50
2017-10-06T14:51:14.371Z,14.40
2017-10-06T14:53:40.579Z,14.30
2017-10-06T14:56:07.504Z,14.50
2017-10-06T14:58:33.933Z,14.40
2017-10-06T15:01:00.306Z,14.70
2017-10-06T15:03:26.674Z,14.40
2017-10-06T15:05:53.752Z,14.30
2017-10-06T15:08:21.051Z,14.50
2017-10-06T15:10:50.304Z,14.50
2017-10-06T15:13:38.946Z,14.50
2017-10-06T15:16:10.047Z,14.40
2017-10-06T15:18:36.220Z,14.50
2017-10-06T15:21:02.419Z,14.50
2017-10-06T15:23:28.633Z,14.40
2017-10-06T15:25:54.837Z,14.60
2017-10-06T15:28:21.054Z,14.20
2017-10-06T15:30:52.991Z,14.20
2017-10-06T15:33:23.047Z,14.30
2017-10-06T15:35:49.217Z,14.30
2017-10-06T15:38:15.497Z,14.10
2017-10-06T15:40:42.533Z,14.20
2017-10-06T15:43:27.650Z,14.20
2017-10-06T15:45:58.210Z,14.10
2017-10-06T15:48:24.598Z,14.10
2017-10-06T15:50:50.935Z,14.10
2017-10-06T15:53:17.274Z,14.10
2017-10-06T15:55:43.627Z,14.20
2017-10-06T15:58:09.859Z,14.00
2017-10-06T16:00:36.129Z,14.00
2017-10-06T16:03:03.170Z,14.00
2017-10-06T16:05:29.598Z,14.00
2017-10-06T16:07:56.050Z,14.20
2017-10-06T16:10:22.396Z,14.00
2017-10-06T16:12:48.747Z,14.10
2017-10-06T16:15:15.175Z,14.10
2017-10-06T16:17:41.526Z,14.10
2017-10-06T16:20:08.031Z,14.00
2017-10-06T16:22:34.182Z,14.10
2017-10-06T16:25:00.319Z,14.10
2017-10-06T16:27:27.226Z,13.90
2017-10-06T16:29:53.481Z,14.00
2017-10-06T16:32:20.383Z,14.00
2017-10-06T16:34:46.586Z,14.00
2017-10-06T16:37:12.861Z,14.00
2017-10-06T16:39:38.994Z,13.90
2017-10-06T16:42:05.122Z,14.00
2017-10-06T16:44:32.083Z,13.90
2017-10-06T16:46:58.249Z,13.90
2017-10-06T16:49:24.465Z,13.90
2017-10-06T16:51:50.605Z,14.00
2017-10-06T16:54:16.813Z,14.00
2017-10-06T16:56:43.289Z,13.80
2017-10-06T16:59:09.797Z,13.50
2017-10-06T17:01:36.003Z,13.70
2017-10-06T17:04:02.174Z,14.20
2017-10-06T17:06:28.397Z,13.60
2017-10-06T17:08:54.558Z,13.70
2017-10-06T17:11:21.449Z,13.70
2017-10-06T17:13:47.617Z,13.70
2017-10-06T17:16:13.757Z,13.70
2017-10-06T17:18:59.570Z,13.60
2017-10-06T17:21:43.916Z,13.50
2017-10-06T17:24:16.114Z,13.50
2017-10-06T17:26:42.742Z,13.40
2017-10-06T17:29:09.141Z,13.50
2017-10-06T17:31:35.722Z,13.80
2017-10-06T17:34:02.813Z,13.40
2017-10-06T17:36:29.223Z,13.40
2017-10-06T17:38:56.282Z,13.30
2017-10-06T17:41:22.751Z,13.30
2017-10-06T17:43:50.859Z,13.20
2017-10-06T17:46:17.415Z,13.30
2017-10-06T17:48:43.898Z,13.30
2017-10-06T17:51:10.207Z,13.20
2017-10-06T17:53:36.554Z,13.20
2017-10-06T17:56:02.994Z,13.20
2017-10-06T17:58:30.339Z,13.20
2017-10-06T18:00:56.721Z,13.60
2017-10-06T18:03:23.351Z,13.10
2017-10-06T18:05:49.764Z,13.10
2017-10-06T18:08:16.211Z,12.80
2017-10-06T18:10:42.670Z,12.80
2017-10-06T18:13:09.025Z,12.80
2017-10-06T18:15:35.428Z,12.90
2017-10-06T18:18:13.800Z,13.00
2017-10-06T18:20:40.813Z,12.90
2017-10-06T18:23:07.214Z,12.80
2017-10-06T18:25:34.318Z,12.80
2017-10-06T18:28:01.434Z,12.90
2017-10-06T18:30:27.783Z,12.70
2017-10-06T18:32:54.126Z,12.80
2017-10-06T18:35:20.462Z,13.30
2017-10-06T18:37:47.063Z,13.20
2017-10-06T18:40:14.525Z,12.80
2017-10-06T18:42:40.911Z,12.80
2017-10-06T18:45:07.333Z,12.70
2017-10-06T18:47:33.686Z,12.70
2017-10-06T18:50:00.025Z,12.70
2017-10-06T18:52:26.482Z,12.80
2017-10-06T18:54:53.044Z,12.80
2017-10-06T18:57:19.445Z,12.70
2017-10-06T18:59:45.790Z,12.60
2017-10-06T19:02:12.135Z,12.60
2017-10-06T19:04:38.584Z,12.50
2017-10-06T19:07:04.998Z,12.50
2017-10-06T19:09:32.086Z,12.50
2017-10-06T19:11:58.422Z,12.50
2017-10-06T19:14:24.797Z,12.50
2017-10-06T19:16:51.178Z,12.50
2017-10-06T19:19:18.330Z,12.40
2017-10-06T19:21:44.751Z,12.40
2017-10-06T19:24:11.242Z,12.40
2017-10-06T19:26:38.485Z,12.40
2017-10-06T19:29:04.857Z,12.80
2017-10-06T19:31:31.934Z,12.40
2017-10-06T19:33:58.397Z,12.40
2017-10-06T19:36:25.144Z,12.50
2017-10-06T19:38:52.388Z,12.50
2017-10-06T19:41:18.755Z,12.40
2017-10-06T19:43:45.124Z,12.60
2017-10-06T19:46:11.511Z,12.80
2017-10-06T19:48:38.838Z,12.60
2017-10-06T19:51:05.158Z,12.50
2017-10-06T19:53:31.806Z,12.60
2017-10-06T19:55:58.266Z,12.70
2017-10-06T19:58:24.643Z,12.80
2017-10-06T20:00:50.985Z,12.80
2017-10-06T20:03:17.736Z,12.80
2017-10-06T20:05:44.126Z,12.70
2017-10-06T20:08:10.586Z,12.70
2017-10-06T20:10:36.935Z,12.70
2017-10-06T20:13:03.367Z,12.80
2017-10-06T20:15:29.859Z,12.80
2017-10-06T20:17:56.942Z,12.60
2017-10-06T20:20:23.470Z,12.70
2017-10-06T20:22:51.086Z,12.70
2017-10-06T20:25:18.274Z,12.60
2017-10-06T20:27:46.760Z,12.60
2017-10-06T20:30:22.968Z,12.60
2017-10-06T20:32:52.693Z,12.50
2017-10-06T20:35:21.498Z,12.80
2017-10-06T20:37:48.342Z,12.40
2017-10-06T20:40:14.590Z,12.30
2017-10-06T20:42:40.989Z,12.80
2017-10-06T20:45:07.274Z,12.70
2017-10-06T20:47:33.606Z,12.50
2017-10-06T20:50:00.558Z,12.50
2017-10-06T20:52:27.867Z,12.50
2017-10-06T20:54:54.066Z,12.40
2017-10-06T20:57:20.246Z,12.70
2017-10-06T20:59:47.159Z,12.40
2017-10-06T21:02:13.364Z,12.40
2017-10-06T21:04:39.632Z,12.40
2017-10-06T21:07:06.381Z,12.50
2017-10-06T21:09:32.691Z,12.50
2017-10-06T21:11:59.147Z,12.50
2017-10-06T21:14:25.348Z,12.20
2017-10-06T21:16:51.698Z,12.40
2017-10-06T21:19:17.931Z,12.40
2017-10-06T21:21:44.757Z,12.20
2017-10-06T21:24:11.112Z,12.30
2017-10-06T21:26:37.583Z,12.40
2017-10-06T21:29:03.750Z,12.20
2017-10-06T21:31:30.323Z,12.40
2017-10-06T21:33:57.419Z,12.20
2017-10-06T21:36:23.845Z,12.20
2017-10-06T21:38:50.003Z,12.50
2017-10-06T21:41:16.365Z,12.20
2017-10-06T21:43:43.275Z,12.20
2017-10-06T21:46:09.423Z,12.20
2017-10-06T21:48:35.603Z,12.20
2017-10-06T21:51:01.861Z,12.10
2017-10-06T21:53:28.124Z,12.10
2017-10-06T21:55:54.527Z,12.20
2017-10-06T21:58:20.973Z,12.20
2017-10-06T22:00:47.477Z,12.20
2017-10-06T22:03:13.766Z,12.20
2017-10-06T22:05:39.960Z,12.10
2017-10-06T22:08:06.915Z,12.20
2017-10-06T22:10:33.098Z,12.20
2017-10-06T22:12:59.259Z,12.20
2017-10-06T22:15:25.411Z,12.20
2017-10-06T22:17:51.843Z,12.20
2017-10-06T22:20:18.261Z,12.20
2017-10-06T22:22:44.665Z,11.90
2017-10-06T22:25:11.062Z,12.10
2017-10-06T22:27:37.416Z,12.10
2017-10-06T22:30:03.827Z,12.40
2017-10-06T22:32:30.203Z,12.10
2017-10-06T22:34:56.583Z,12.10
2017-10-06T22:37:23.002Z,12.00
2017-10-06T22:39:49.353Z,11.90
2017-10-06T22:42:15.709Z,12.00
2017-10-06T22:44:42.111Z,12.50
2017-10-06T22:47:08.507Z,12.00
2017-10-06T22:49:36.250Z,12.10
2017-10-06T22:52:03.221Z,12.10
2017-10-06T22:54:29.408Z,12.10
2017-10-06T22:56:55.545Z,12.00
2017-10-06T22:59:21.729Z,11.90
2017-10-06T23:01:48.024Z,12.00
2017-10-06T23:04:15.046Z,12.00
2017-10-06T23:06:41.242Z,12.00
2017-10-06T23:09:07.538Z,11.90
2017-10-06T23:11:33.798Z,11.80
2017-10-06T23:14:00.873Z,11.90
2017-10-06T23:16:27.943Z,11.90
2017-10-06T23:18:54.685Z,11.90
2017-10-06T23:21:20.859Z,11.90
2017-10-06T23:23:47.032Z,11.90
2017-10-06T23:26:13.173Z,11.90
2017-10-06T23:28:39.504Z,12.00
2017-10-06T23:31:06.430Z,12.10
2017-10-06T23:33:32.834Z,12.00
2017-10-06T23:35:59.470Z,11.90
2017-10-06T23:38:25.853Z,11.90
2017-10-06T23:40:52.204Z,11.90
2017-10-06T23:43:18.553Z,11.90
2017-10-06T23:45:45.094Z,12.20
2017-10-06T23:48:11.412Z,11.60
2017-10-06T23:50:37.737Z,11.80
2017-10-06T23:53:04.246Z,11.90
2017-10-06T23:55:30.989Z,11.80
2017-10-06T23:57:57.344Z,11.90
